EGTE/EXT METAR and TAF weather

Enter ICAO airport designator
Station Type Date Time Source
EGTE METAR 2021/02/27 02:20 UTC NOAA

EGTE 270220Z VRB02KT CAVOK M00/M01 Q1041


Station Type Date Time Source
EGTE Decoded METAR 2021/02/27 02:20 UTC NOAA

Exeter Airport, United Kingdom (EGTE) 50-44N 003-25W
Feb 26, 2021 - 09:20 PM EST / 2021.02.27 0220 UTC
Wind: Variable at 2 MPH (2 KT):0
Visibility: greater than 7 mile(s):0
Temperature: 32 F (0 C)
Dew Point: 30 F (-1 C)
Relative Humidity: 92%
Pressure (altimeter): 30.74 in. Hg (1041 hPa)
ob: EGTE 270220Z VRB02KT CAVOK M00/M01 Q1041
cycle: 2

Station Type Date Time Source
EGTE TAF 2012/04/19 12:15 UTC NOAA

TAF TAF EGTE 191401Z 1912/1924 31016KT 9999 SCT030 SCT035 PROB40
TEMPO 1915/1918 7000 SHRA BKN014

Example: see airport list